Time;durP1;ratioP1;P1;durP2;ratioP2;P2;SDS_P1;SDS_P2;PMS_P1;PMS_P2;Temp;Humidity;BMP_temperature;BMP_pressure;BME280_temperature;BME280_humidity;BME280_pressure;Samples;Min_cycle;Max_cycle;Signal;HPM_P1;HPM_P2
2023/10/08 00:01:13;;;;;;;4.53;3.10;;;19.70;67.40;;;;;;4993820;28;20189;-71
2023/10/08 00:03:40;;;;;;;3.85;3.15;;;19.70;67.60;;;;;;4993791;28;20199;-71
2023/10/08 00:06:06;;;;;;;4.43;3.38;;;19.70;67.60;;;;;;4994848;28;20240;-71
2023/10/08 00:08:35;;;;;;;3.40;2.90;;;19.70;67.60;;;;;;4987554;28;20204;-71
2023/10/08 00:11:07;;;;;;;3.20;2.80;;;19.70;67.60;;;;;;4994468;28;20649;-71
2023/10/08 00:13:40;;;;;;;3.85;2.83;;;19.70;67.70;;;;;;4997118;28;20247;-71
2023/10/08 00:16:11;;;;;;;3.03;2.70;;;19.70;67.60;;;;;;4994009;28;20612;-71
2023/10/08 00:18:48;;;;;;;7.07;2.85;;;19.60;67.50;;;;;;4998431;28;20269;-71
2023/10/08 00:23:52;;;;;;;4.20;2.90;;;19.70;67.70;;;;;;4987752;28;20181;-71
2023/10/08 00:26:27;;;;;;;3.65;2.60;;;19.60;67.40;;;;;;4997162;28;20275;-71
2023/10/08 00:28:59;;;;;;;3.38;2.67;;;19.60;67.50;;;;;;4979351;28;20239;-71
2023/10/08 00:31:37;;;;;;;3.83;3.22;;;19.60;67.50;;;;;;4993697;28;20189;-71
2023/10/08 00:34:11;;;;;;;3.40;3.10;;;19.60;67.40;;;;;;4995402;28;20699;-71
2023/10/08 00:36:41;;;;;;;4.82;3.25;;;19.60;67.50;;;;;;4998167;28;20194;-71
2023/10/08 00:39:12;;;;;;;3.28;2.97;;;19.60;67.50;;;;;;4982603;28;20228;-71
2023/10/08 00:41:43;;;;;;;4.40;2.90;;;19.60;67.50;;;;;;4996308;28;20267;-71
2023/10/08 00:44:29;;;;;;;3.28;2.80;;;19.60;67.60;;;;;;4980129;28;20201;-71
2023/10/08 00:46:57;;;;;;;3.03;2.50;;;19.60;67.50;;;;;;4998971;28;20200;-71
2023/10/08 00:49:26;;;;;;;3.80;3.05;;;19.60;67.50;;;;;;4980472;28;20216;-71
2023/10/08 00:52:00;;;;;;;3.42;2.67;;;19.60;67.60;;;;;;4967774;28;20188;-71
2023/10/08 00:54:28;;;;;;;3.58;2.50;;;19.60;67.50;;;;;;4987243;28;20211;-72
2023/10/08 00:57:04;;;;;;;4.05;3.00;;;19.60;67.50;;;;;;4997665;28;20177;-71
2023/10/08 00:59:37;;;;;;;3.33;2.90;;;19.60;67.50;;;;;;4995345;28;20295;-71
2023/10/08 01:02:08;;;;;;;2.97;2.65;;;19.60;67.60;;;;;;4995741;28;20263;-71
2023/10/08 01:04:34;;;;;;;3.45;2.75;;;19.60;67.50;;;;;;4980150;28;20192;-71
2023/10/08 01:07:15;;;;;;;2.85;2.60;;;19.60;67.60;;;;;;4995664;28;20181;-71
2023/10/08 01:09:43;;;;;;;4.15;2.72;;;19.60;67.60;;;;;;4994291;28;20215;-71
2023/10/08 01:14:53;;;;;;;3.20;2.80;;;19.60;67.60;;;;;;4992839;28;20211;-71
2023/10/08 01:17:24;;;;;;;3.55;2.90;;;19.60;67.60;;;;;;4977937;28;20187;-71
2023/10/08 01:20:20;;;;;;;4.70;2.85;;;19.60;67.60;;;;;;4978519;28;20200;-71
2023/10/08 01:22:38;;;;;;;3.92;2.70;;;19.70;67.80;;;;;;4993564;28;20188;-71
2023/10/08 01:25:05;;;;;;;5.53;3.03;;;19.60;67.60;;;;;;4995078;28;20239;-70
2023/10/08 01:27:34;;;;;;;3.42;2.75;;;19.60;67.60;;;;;;4993643;28;20189;-71
2023/10/08 01:30:17;;;;;;;3.13;2.30;;;19.60;67.60;;;;;;4993729;28;20201;-71
2023/10/08 01:32:44;;;;;;;3.60;2.67;;;19.60;67.70;;;;;;4962332;28;20180;-71
2023/10/08 01:35:22;;;;;;;3.72;2.83;;;19.60;67.70;;;;;;4993732;28;20208;-71
2023/10/08 01:37:56;;;;;;;3.50;2.80;;;19.60;67.70;;;;;;4993128;28;20668;-71
2023/10/08 01:40:22;;;;;;;3.88;2.58;;;19.60;67.80;;;;;;4993792;28;20212;-71
2023/10/08 01:42:51;;;;;;;3.63;2.83;;;19.60;67.70;;;;;;4990499;28;20204;-71
2023/10/08 01:45:18;;;;;;;2.90;2.55;;;19.60;67.70;;;;;;4974044;28;20193;-71
2023/10/08 01:47:51;;;;;;;4.38;2.70;;;19.60;67.70;;;;;;4992893;28;20213;-71
2023/10/08 01:50:22;;;;;;;2.88;2.65;;;19.60;67.70;;;;;;4993692;28;20205;-71
2023/10/08 01:52:51;;;;;;;4.55;2.50;;;19.60;67.70;;;;;;4976971;28;20193;-71
2023/10/08 01:55:19;;;;;;;3.53;2.47;;;19.60;67.60;;;;;;4992753;28;20747;-71
2023/10/08 01:57:53;;;;;;;3.72;2.83;;;19.60;67.70;;;;;;4993470;28;20188;-70
2023/10/08 02:00:19;;;;;;;3.85;2.67;;;19.60;67.70;;;;;;4976867;28;20221;-71
2023/10/08 02:02:47;;;;;;;3.10;2.45;;;19.60;67.70;;;;;;4993451;28;20185;-71
2023/10/08 02:05:15;;;;;;;3.28;2.72;;;19.60;67.70;;;;;;4989873;28;20236;-71
2023/10/08 02:07:44;;;;;;;3.35;2.47;;;19.60;67.70;;;;;;4991698;28;20188;-71
2023/10/08 02:10:10;;;;;;;3.25;2.58;;;19.60;67.70;;;;;;4973193;28;20209;-71
2023/10/08 02:12:38;;;;;;;3.60;2.58;;;19.60;68.50;;;;;;4975968;28;20220;-71
2023/10/08 02:15:06;;;;;;;3.25;2.47;;;19.60;67.80;;;;;;4989075;28;20206;-71
2023/10/08 02:17:33;;;;;;;3.13;2.20;;;19.60;67.80;;;;;;4984018;28;20192;-70
2023/10/08 02:19:59;;;;;;;3.95;2.75;;;19.60;67.80;;;;;;4991851;28;20231;-71
2023/10/08 02:22:25;;;;;;;2.83;2.53;;;19.60;67.80;;;;;;4975918;28;20239;-71
2023/10/08 02:24:53;;;;;;;4.05;2.60;;;19.60;67.80;;;;;;4993019;28;20200;-71
2023/10/08 02:27:19;;;;;;;2.38;2.00;;;19.60;67.80;;;;;;4999115;28;20723;-71
2023/10/08 02:29:44;;;;;;;5.55;2.20;;;19.60;67.80;;;;;;4991191;28;20211;-71
2023/10/08 02:32:10;;;;;;;3.80;2.58;;;19.60;67.70;;;;;;4992023;28;20189;-71
2023/10/08 02:34:36;;;;;;;3.65;2.80;;;19.60;67.70;;;;;;4997798;28;20213;-71
2023/10/08 02:37:03;;;;;;;3.60;2.50;;;19.60;67.70;;;;;;4975705;28;20177;-71
2023/10/08 02:39:32;;;;;;;3.92;2.38;;;19.60;67.70;;;;;;4991280;28;20212;-71
2023/10/08 02:42:01;;;;;;;3.35;2.60;;;19.60;67.70;;;;;;4991428;28;20196;-71
2023/10/08 02:44:27;;;;;;;3.78;2.45;;;19.60;67.70;;;;;;5004555;28;20268;-71
2023/10/08 02:46:54;;;;;;;3.00;2.28;;;19.60;67.70;;;;;;4963562;28;20257;-71
2023/10/08 02:49:22;;;;;;;3.20;2.10;;;19.60;67.80;;;;;;4956056;28;20259;-71
2023/10/08 02:51:53;;;;;;;2.80;2.28;;;19.60;67.80;;;;;;4999418;28;20197;-71
2023/10/08 02:54:23;;;;;;;3.50;2.80;;;19.50;67.70;;;;;;4955920;28;20216;-70
2023/10/08 02:56:52;;;;;;;3.03;2.50;;;19.60;67.80;;;;;;4993798;28;20263;-71
2023/10/08 02:59:22;;;;;;;3.33;2.55;;;19.50;67.70;;;;;;4995043;28;20207;-71
2023/10/08 03:01:49;;;;;;;2.78;2.10;;;19.60;67.90;;;;;;4990996;28;20181;-71
2023/10/08 03:04:18;;;;;;;3.28;2.22;;;19.50;67.70;;;;;;4974349;28;20243;-71
2023/10/08 03:07:04;;;;;;;3.90;2.28;;;19.60;67.90;;;;;;4974967;28;20204;-71
2023/10/08 03:09:32;;;;;;;2.53;2.33;;;19.50;67.80;;;;;;4991429;28;20224;-71
2023/10/08 03:11:58;;;;;;;3.05;2.10;;;19.60;67.80;;;;;;4990234;28;20219;-71
2023/10/08 03:14:41;;;;;;;3.67;2.10;;;19.60;67.80;;;;;;4993197;28;20247;-71
2023/10/08 03:17:07;;;;;;;2.30;2.10;;;19.50;67.70;;;;;;4988354;28;20183;-71
2023/10/08 03:19:35;;;;;;;3.10;2.10;;;19.50;67.70;;;;;;4989924;28;20235;-71
2023/10/08 03:22:04;;;;;;;2.70;2.22;;;19.50;67.70;;;;;;4962252;28;20277;-71
2023/10/08 03:24:37;;;;;;;3.22;2.40;;;19.50;67.70;;;;;;5003308;28;20271;-71
2023/10/08 03:27:07;;;;;;;2.90;2.00;;;19.50;67.70;;;;;;4989012;28;20278;-71
2023/10/08 03:29:40;;;;;;;3.20;2.42;;;19.50;67.80;;;;;;4991860;28;20342;-70
2023/10/08 03:32:15;;;;;;;3.95;2.63;;;19.50;67.80;;;;;;4987785;28;20259;-71
2023/10/08 03:34:48;;;;;;;3.00;2.42;;;19.50;67.80;;;;;;4990990;28;20219;-71
2023/10/08 03:37:21;;;;;;;2.60;2.40;;;19.50;67.80;;;;;;5008938;28;20192;-71
2023/10/08 03:39:51;;;;;;;4.05;2.20;;;19.50;67.80;;;;;;4992246;28;20204;-71
2023/10/08 03:42:22;;;;;;;4.07;2.47;;;19.50;67.80;;;;;;4981065;28;20188;-71
2023/10/08 03:44:53;;;;;;;4.25;2.40;;;19.50;67.80;;;;;;4994766;28;20188;-71
2023/10/08 03:47:19;;;;;;;3.08;2.30;;;19.50;67.80;;;;;;4996361;28;20247;-71
2023/10/08 03:49:46;;;;;;;4.35;2.20;;;19.50;67.80;;;;;;4983476;28;20215;-71
2023/10/08 03:52:15;;;;;;;3.15;2.45;;;19.50;67.80;;;;;;4992825;28;20276;-71
2023/10/08 03:54:48;;;;;;;2.30;2.05;;;19.50;67.80;;;;;;4977208;28;20230;-71
2023/10/08 03:57:24;;;;;;;3.50;2.40;;;19.50;67.70;;;;;;4993366;28;20193;-71
2023/10/08 03:59:55;;;;;;;3.10;2.10;;;19.50;67.80;;;;;;4992398;28;20208;-71
2023/10/08 04:02:39;;;;;;;3.53;2.30;;;19.50;67.90;;;;;;4975941;28;20272;-71
2023/10/08 04:05:18;;;;;;;2.78;2.20;;;19.50;67.90;;;;;;4980396;28;20200;-70
2023/10/08 04:13:07;;;;;;;2.20;1.95;;;19.50;67.80;;;;;;4997346;28;20192;-71
2023/10/08 04:15:40;;;;;;;4.10;2.40;;;19.50;67.80;;;;;;4967397;28;20217;-71
2023/10/08 04:18:13;;;;;;;3.08;2.20;;;19.50;67.80;;;;;;4994977;28;20186;-70
2023/10/08 04:20:39;;;;;;;3.08;2.33;;;19.50;67.90;;;;;;4992631;28;20188;-71
2023/10/08 04:23:20;;;;;;;2.75;2.22;;;19.50;67.80;;;;;;4976755;28;20177;-70
2023/10/08 04:25:54;;;;;;;3.47;2.58;;;19.50;67.80;;;;;;4994078;28;20195;-71
2023/10/08 04:28:21;;;;;;;5.45;3.40;;;19.50;67.90;;;;;;4991057;28;20189;-71
2023/10/08 04:30:48;;;;;;;3.40;2.70;;;19.50;68.10;;;;;;5002395;28;20185;-70
2023/10/08 04:33:14;;;;;;;4.65;3.10;;;19.50;67.90;;;;;;5003985;28;20192;-71
2023/10/08 04:35:48;;;;;;;4.38;2.97;;;19.50;67.80;;;;;;4991421;28;20207;-71
2023/10/08 04:38:25;;;;;;;4.38;3.28;;;19.50;67.90;;;;;;4969234;28;20680;-71
2023/10/08 04:40:52;;;;;;;4.97;3.20;;;19.50;67.90;;;;;;4998570;28;20230;-71
2023/10/08 04:43:27;;;;;;;3.97;3.03;;;19.50;67.90;;;;;;4984042;28;20189;-71
2023/10/08 04:45:56;;;;;;;3.72;2.72;;;19.50;67.90;;;;;;5001347;28;20284;-71
2023/10/08 04:48:23;;;;;;;5.03;2.95;;;19.50;67.90;;;;;;4977181;28;20184;-71
2023/10/08 04:50:58;;;;;;;5.03;3.15;;;19.50;67.90;;;;;;5001964;28;20203;-71
2023/10/08 04:53:32;;;;;;;5.10;2.55;;;19.50;67.90;;;;;;4995018;28;20625;-70
2023/10/08 04:56:06;;;;;;;3.33;2.58;;;19.50;67.90;;;;;;5007410;28;20200;-71
2023/10/08 04:58:35;;;;;;;3.67;2.88;;;19.50;68.00;;;;;;4977042;28;20214;-70
2023/10/08 05:01:18;;;;;;;3.92;2.70;;;19.50;68.00;;;;;;4999909;28;20181;-71
2023/10/08 05:04:23;;;;;;;5.05;2.92;;;19.50;67.90;;;;;;5006088;28;20203;-71
2023/10/08 05:14:38;;;;;;;2.97;2.50;;;19.50;67.90;;;;;;4992088;28;20212;-70
2023/10/08 05:17:11;;;;;;;2.92;2.28;;;19.50;67.90;;;;;;5007337;28;20267;-70
2023/10/08 05:22:43;;;;;;;4.38;2.67;;;19.50;67.90;;;;;;4997184;28;20267;-71
2023/10/08 05:25:08;;;;;;;3.55;2.50;;;19.50;68.00;;;;;;4991664;28;20265;-72
2023/10/08 05:57:14;;;;;;;3.83;2.40;;;19.50;68.00;;;;;;4983258;28;20189;-71
2023/10/08 06:13:04;;;;;;;3.85;2.72;;;19.40;67.90;;;;;;4985413;28;20216;-71
2023/10/08 06:18:28;;;;;;;6.55;2.50;;;19.50;68.00;;;;;;4998598;28;20188;-71
2023/10/08 06:21:08;;;;;;;3.47;2.45;;;19.50;68.00;;;;;;5000462;28;20188;-71
2023/10/08 06:23:37;;;;;;;2.47;2.20;;;19.50;68.00;;;;;;4991039;28;20246;-71
2023/10/08 06:28:36;;;;;;;2.88;2.05;;;19.40;67.80;;;;;;5002439;28;20208;-71
2023/10/08 06:31:06;;;;;;;3.60;2.40;;;19.40;67.90;;;;;;4988877;28;20191;-71
2023/10/08 06:33:36;;;;;;;2.72;2.33;;;19.50;67.90;;;;;;4996901;28;20185;-71
2023/10/08 06:38:40;;;;;;;3.20;2.20;;;19.50;68.00;;;;;;4996630;28;20216;-70
2023/10/08 06:43:47;;;;;;;3.50;2.55;;;19.50;68.00;;;;;;4997446;28;20185;-71
2023/10/08 06:46:13;;;;;;;3.40;2.30;;;19.50;68.10;;;;;;4974179;28;20190;-71
2023/10/08 06:48:43;;;;;;;3.40;2.30;;;19.50;68.10;;;;;;4986220;28;20242;-71
2023/10/08 06:51:13;;;;;;;3.78;2.67;;;19.50;68.00;;;;;;4999013;28;20243;-71
2023/10/08 06:53:46;;;;;;;2.90;2.22;;;19.50;68.10;;;;;;4973085;28;20184;-70
2023/10/08 06:56:15;;;;;;;3.40;2.25;;;19.50;68.10;;;;;;5000107;28;20215;-70
2023/10/08 06:58:48;;;;;;;3.90;2.92;;;19.50;68.10;;;;;;4987576;28;20220;-70
2023/10/08 07:01:21;;;;;;;2.95;2.65;;;19.50;68.10;;;;;;4960863;28;20236;-71
2023/10/08 07:03:51;;;;;;;3.13;2.60;;;19.50;68.10;;;;;;4979448;28;20192;-70
2023/10/08 07:06:31;;;;;;;4.55;2.35;;;19.50;68.10;;;;;;4987865;28;20184;-70
2023/10/08 07:08:59;;;;;;;3.63;2.28;;;19.50;68.10;;;;;;4982634;28;20205;-70
2023/10/08 07:11:29;;;;;;;3.83;2.60;;;19.50;68.10;;;;;;4966650;28;20191;-71
2023/10/08 07:13:55;;;;;;;3.83;2.63;;;19.50;68.20;;;;;;4997963;28;20300;-71
2023/10/08 07:16:21;;;;;;;3.30;2.65;;;19.50;68.10;;;;;;5000513;28;20220;-72
2023/10/08 07:18:55;;;;;;;3.00;2.42;;;19.50;68.20;;;;;;4983770;28;20205;-71
2023/10/08 07:21:28;;;;;;;3.72;2.65;;;19.50;68.20;;;;;;4980500;28;20239;-71
2023/10/08 07:23:59;;;;;;;3.67;2.58;;;19.50;68.30;;;;;;4983470;28;20215;-71
2023/10/08 07:26:39;;;;;;;3.03;2.20;;;19.50;68.30;;;;;;5003154;28;20222;-71
2023/10/08 07:29:09;;;;;;;3.47;2.38;;;19.50;68.20;;;;;;4984681;28;20226;-71
2023/10/08 07:31:41;;;;;;;3.03;2.45;;;19.50;68.20;;;;;;4968662;28;20203;-71
2023/10/08 07:36:50;;;;;;;4.35;2.63;;;19.50;68.30;;;;;;4992516;28;20185;-71
2023/10/08 07:39:33;;;;;;;2.92;2.30;;;19.50;68.30;;;;;;4990522;28;20212;-71
2023/10/08 07:42:05;;;;;;;3.60;2.65;;;19.50;68.40;;;;;;4960573;28;20206;-71
2023/10/08 07:44:35;;;;;;;4.25;2.70;;;19.50;68.40;;;;;;4990612;28;20683;-71
2023/10/08 07:47:04;;;;;;;4.38;2.58;;;19.50;68.30;;;;;;4979656;28;20188;-71
2023/10/08 07:49:31;;;;;;;3.42;2.45;;;19.50;68.40;;;;;;4995488;28;20224;-72
2023/10/08 07:51:59;;;;;;;4.45;2.55;;;19.50;68.40;;;;;;4992058;28;20184;-71
2023/10/08 07:54:29;;;;;;;3.97;2.63;;;19.50;68.40;;;;;;4993784;28;20216;-72
2023/10/08 07:57:18;;;;;;;5.43;3.00;;;19.50;68.30;;;;;;4982279;28;20243;-72
2023/10/08 07:59:46;;;;;;;4.82;2.70;;;19.50;69.10;;;;;;4977557;28;20217;-71
2023/10/08 08:02:14;;;;;;;4.70;2.55;;;19.50;68.40;;;;;;4994477;28;20212;-71
2023/10/08 08:04:43;;;;;;;2.97;2.42;;;19.50;68.40;;;;;;4994898;28;20185;-71
2023/10/08 08:07:15;;;;;;;3.85;2.47;;;19.60;68.40;;;;;;4977862;28;20178;-72
2023/10/08 08:09:58;;;;;;;3.20;2.83;;;19.60;68.40;;;;;;4971012;28;20297;-71
2023/10/08 08:12:25;;;;;;;3.28;2.70;;;19.60;68.30;;;;;;4982282;28;20259;-71
2023/10/08 08:14:52;;;;;;;4.40;2.63;;;19.60;68.40;;;;;;4982670;28;20209;-71
2023/10/08 08:17:18;;;;;;;2.50;2.20;;;19.60;68.40;;;;;;4981167;28;20607;-71
2023/10/08 08:19:47;;;;;;;3.70;2.65;;;19.60;68.30;;;;;;4990642;28;20289;-71
2023/10/08 08:22:21;;;;;;;4.63;3.05;;;19.60;68.40;;;;;;4995336;28;20177;-71
2023/10/08 08:25:02;;;;;;;2.85;2.35;;;19.60;68.40;;;;;;4995506;28;20605;-71
2023/10/08 08:27:34;;;;;;;4.28;2.60;;;19.60;68.50;;;;;;4995073;28;20215;-71
2023/10/08 08:30:10;;;;;;;3.97;2.42;;;19.60;68.50;;;;;;4969576;28;20259;-71
2023/10/08 08:32:40;;;;;;;6.22;3.05;;;19.60;68.50;;;;;;4981713;28;20276;-71
2023/10/08 08:35:16;;;;;;;4.03;2.55;;;19.60;68.50;;;;;;4984648;28;20618;-71
2023/10/08 08:37:43;;;;;;;3.80;2.70;;;19.60;68.50;;;;;;4967406;28;20196;-71
2023/10/08 08:40:19;;;;;;;2.38;2.17;;;19.60;68.50;;;;;;4998491;28;20308;-71
2023/10/08 08:42:52;;;;;;;3.25;2.63;;;19.60;68.50;;;;;;4998050;28;20184;-70
2023/10/08 08:45:26;;;;;;;3.03;2.53;;;19.60;68.50;;;;;;5006424;28;20218;-70
2023/10/08 08:47:53;;;;;;;4.38;2.22;;;19.60;68.50;;;;;;4993467;28;20188;-71
2023/10/08 08:50:21;;;;;;;4.72;2.33;;;19.60;68.50;;;;;;4987058;28;20997;-71
2023/10/08 08:52:47;;;;;;;3.75;2.75;;;19.60;68.50;;;;;;4997143;28;20178;-71
2023/10/08 08:55:14;;;;;;;4.32;2.80;;;19.60;68.50;;;;;;4999866;28;20204;-71
2023/10/08 08:57:47;;;;;;;3.33;2.70;;;19.60;68.50;;;;;;4986952;28;20713;-71
2023/10/08 09:00:16;;;;;;;4.13;2.63;;;19.60;68.50;;;;;;5003423;28;20205;-71
2023/10/08 09:02:44;;;;;;;4.85;2.90;;;19.60;68.60;;;;;;4994301;28;20207;-72
2023/10/08 09:05:23;;;;;;;5.93;2.80;;;19.60;68.50;;;;;;5005828;28;20179;-72
2023/10/08 09:08:03;;;;;;;3.35;2.30;;;19.60;68.50;;;;;;4982070;28;20235;-71
2023/10/08 09:10:36;;;;;;;3.78;2.30;;;19.70;68.60;;;;;;5002011;28;20207;-70
2023/10/08 09:13:09;;;;;;;4.78;2.70;;;19.60;68.50;;;;;;4982892;28;20196;-71
2023/10/08 09:15:36;;;;;;;3.58;2.55;;;19.70;68.60;;;;;;4992533;28;20212;-72
2023/10/08 09:18:06;;;;;;;3.42;2.42;;;19.70;68.60;;;;;;4984367;28;20185;-72
2023/10/08 09:20:42;;;;;;;4.82;2.28;;;19.70;68.60;;;;;;4987188;28;20220;-72
2023/10/08 09:23:21;;;;;;;3.63;2.33;;;19.70;68.60;;;;;;4998432;28;20188;-71
2023/10/08 09:25:53;;;;;;;3.35;2.35;;;19.70;68.60;;;;;;5000119;28;20219;-71
2023/10/08 09:28:19;;;;;;;3.78;2.67;;;19.70;68.60;;;;;;4991972;28;20224;-71
2023/10/08 09:30:45;;;;;;;3.60;2.55;;;19.70;68.70;;;;;;4995710;28;20225;-71
2023/10/08 09:33:12;;;;;;;3.65;2.53;;;19.70;68.60;;;;;;4996720;28;20184;-71
2023/10/08 09:35:38;;;;;;;6.97;2.50;;;19.70;68.60;;;;;;4964695;28;20210;-71
2023/10/08 09:38:10;;;;;;;4.53;2.78;;;19.70;68.60;;;;;;5002078;28;20193;-71
2023/10/08 09:40:41;;;;;;;4.03;2.53;;;19.70;68.60;;;;;;4976465;28;20203;-71
2023/10/08 09:43:10;;;;;;;4.15;2.45;;;19.70;68.60;;;;;;4995763;28;20189;-71
2023/10/08 09:45:42;;;;;;;3.95;2.55;;;19.70;68.70;;;;;;4988971;28;20172;-70
2023/10/08 09:48:13;;;;;;;5.82;2.85;;;19.70;68.90;;;;;;4995450;28;20203;-72
2023/10/08 09:50:42;;;;;;;3.38;2.72;;;19.70;69.00;;;;;;4981478;28;20184;-71
2023/10/08 09:53:17;;;;;;;4.18;2.60;;;19.70;68.90;;;;;;4981956;28;20185;-71
2023/10/08 09:55:57;;;;;;;3.55;2.50;;;19.70;68.80;;;;;;4976273;28;20208;-71
2023/10/08 09:58:26;;;;;;;3.35;2.65;;;19.70;68.70;;;;;;4999054;28;20193;-70
2023/10/08 10:00:56;;;;;;;3.15;2.33;;;19.70;68.90;;;;;;4976116;28;20677;-71
2023/10/08 10:03:25;;;;;;;2.72;2.15;;;19.70;69.30;;;;;;4983334;28;20640;-70
2023/10/08 10:05:52;;;;;;;3.45;2.60;;;19.70;69.10;;;;;;4978620;28;20272;-71
2023/10/08 10:08:24;;;;;;;3.97;2.38;;;19.70;69.10;;;;;;4976537;28;20252;-71
2023/10/08 10:10:58;;;;;;;4.22;2.40;;;19.70;69.00;;;;;;4998361;28;20180;-71
2023/10/08 10:13:33;;;;;;;3.65;2.47;;;19.70;68.90;;;;;;4980467;28;20204;-71
2023/10/08 10:15:59;;;;;;;8.10;3.20;;;19.80;68.90;;;;;;4993141;28;20191;-71
2023/10/08 10:18:25;;;;;;;4.35;2.75;;;19.80;68.90;;;;;;5003434;28;20197;-71
2023/10/08 10:21:00;;;;;;;6.60;2.72;;;19.80;68.90;;;;;;5002404;28;20189;-71
2023/10/08 10:23:46;;;;;;;5.72;3.10;;;19.80;69.30;;;;;;4997825;28;20235;-71
2023/10/08 10:26:31;;;;;;;4.85;2.45;;;19.80;70.00;;;;;;4994623;28;20176;-72
2023/10/08 10:29:14;;;;;;;4.15;2.70;;;19.70;69.40;;;;;;4970192;28;20213;-71
2023/10/08 10:31:56;;;;;;;3.58;2.60;;;19.80;69.60;;;;;;4992866;28;20176;-71
2023/10/08 10:34:30;;;;;;;3.67;2.60;;;19.80;69.40;;;;;;4990047;28;20213;-71
2023/10/08 10:37:08;;;;;;;4.63;2.65;;;19.80;69.40;;;;;;4987623;28;20202;-71
2023/10/08 10:39:39;;;;;;;4.53;2.60;;;19.80;69.60;;;;;;4996044;28;20211;-70
2023/10/08 10:42:18;;;;;;;5.75;3.25;;;19.80;69.10;;;;;;4993586;28;20199;-72
2023/10/08 10:44:44;;;;;;;4.25;2.70;;;19.80;69.10;;;;;;4979664;28;20188;-72
2023/10/08 10:52:32;;;;;;;8.60;2.72;;;19.80;69.00;;;;;;4994382;28;20192;-71
2023/10/08 10:57:54;;;;;;;4.88;3.00;;;19.80;69.00;;;;;;4994166;28;20267;-71
2023/10/08 11:03:09;;;;;;;4.07;2.88;;;19.80;68.90;;;;;;4983263;28;20190;-71
2023/10/08 11:05:39;;;;;;;4.57;2.70;;;19.90;69.10;;;;;;4994268;28;20199;-71
2023/10/08 11:08:08;;;;;;;3.17;2.35;;;19.80;68.80;;;;;;4991412;28;20181;-72
2023/10/08 11:10:38;;;;;;;7.20;3.03;;;19.90;68.90;;;;;;4992358;28;20181;-72
2023/10/08 11:13:14;;;;;;;8.25;3.10;;;19.80;68.90;;;;;;4991413;28;20263;-72
2023/10/08 11:15:42;;;;;;;7.88;3.10;;;19.90;69.10;;;;;;4995579;28;20212;-72
2023/10/08 11:18:12;;;;;;;5.30;2.85;;;19.90;68.80;;;;;;4977835;28;20227;-71
2023/10/08 11:20:39;;;;;;;5.72;2.88;;;19.80;68.80;;;;;;4990997;28;20188;-72
2023/10/08 11:23:21;;;;;;;7.22;2.67;;;19.90;69.10;;;;;;4974987;28;20192;-71
2023/10/08 11:26:02;;;;;;;5.50;2.92;;;19.90;69.50;;;;;;4984063;28;20184;-71
2023/10/08 11:28:42;;;;;;;6.20;2.90;;;19.90;69.10;;;;;;4993750;28;20245;-72
2023/10/08 11:31:12;;;;;;;3.30;2.83;;;19.90;69.10;;;;;;4974935;28;20648;-71
2023/10/08 11:33:42;;;;;;;5.70;3.30;;;19.90;69.10;;;;;;4995124;28;20210;-71
2023/10/08 11:36:18;;;;;;;5.30;2.70;;;19.90;69.10;;;;;;4999317;28;20175;-70
2023/10/08 11:38:47;;;;;;;4.38;2.88;;;19.80;69.00;;;;;;4977619;28;20212;-72
2023/10/08 11:41:20;;;;;;;6.22;2.85;;;19.90;69.00;;;;;;4963474;28;20289;-71
2023/10/08 11:43:58;;;;;;;7.30;3.13;;;19.90;69.20;;;;;;4986838;28;20239;-72
2023/10/08 11:46:38;;;;;;;7.18;2.70;;;19.90;69.60;;;;;;5001820;28;20184;-71
2023/10/08 11:49:17;;;;;;;6.13;2.97;;;19.90;69.20;;;;;;4988815;28;20204;-71
2023/10/08 11:51:45;;;;;;;5.00;2.88;;;19.90;69.30;;;;;;4974133;28;20269;-72
2023/10/08 11:54:11;;;;;;;6.90;2.83;;;19.90;69.30;;;;;;4993874;28;20209;-72
2023/10/08 11:56:39;;;;;;;6.20;3.30;;;19.90;69.50;;;;;;4978844;28;20191;-72
2023/10/08 11:59:08;;;;;;;4.60;2.60;;;19.90;69.50;;;;;;4993762;28;20207;-72
2023/10/08 12:01:42;;;;;;;7.60;3.25;;;19.90;70.10;;;;;;4997832;28;20190;-70
2023/10/08 12:04:15;;;;;;;5.80;2.88;;;19.90;69.60;;;;;;4981382;28;20177;-71
2023/10/08 12:06:51;;;;;;;7.20;3.28;;;19.90;69.80;;;;;;4983278;28;20232;-72
2023/10/08 12:09:21;;;;;;;4.55;2.63;;;19.90;69.70;;;;;;4995736;28;20216;-72
2023/10/08 12:11:48;;;;;;;4.47;2.53;;;19.90;69.60;;;;;;4961463;28;20185;-72
2023/10/08 12:14:14;;;;;;;5.72;2.45;;;19.90;70.10;;;;;;4978228;28;20255;-71
2023/10/08 12:16:41;;;;;;;6.43;2.97;;;19.90;69.40;;;;;;4985204;28;20185;-71
2023/10/08 12:19:16;;;;;;;5.63;2.63;;;19.90;69.50;;;;;;5002371;28;20200;-71
2023/10/08 12:21:46;;;;;;;5.57;2.92;;;19.90;69.40;;;;;;4970202;28;20180;-71
2023/10/08 12:24:12;;;;;;;6.93;2.85;;;19.90;69.90;;;;;;4988898;28;20186;-72
2023/10/08 12:26:45;;;;;;;5.82;3.03;;;19.90;69.60;;;;;;4995274;28;20250;-71
2023/10/08 12:29:14;;;;;;;3.83;2.72;;;19.90;69.50;;;;;;4991813;28;20213;-71
2023/10/08 12:31:40;;;;;;;6.65;2.72;;;19.90;69.50;;;;;;4995216;28;20184;-71
2023/10/08 12:34:06;;;;;;;5.93;2.60;;;19.90;69.50;;;;;;4980188;28;20236;-71
2023/10/08 12:36:36;;;;;;;5.53;2.75;;;19.90;69.50;;;;;;4988192;28;20218;-71
2023/10/08 12:39:14;;;;;;;7.05;3.13;;;19.90;70.10;;;;;;4994025;28;20223;-71
2023/10/08 12:41:44;;;;;;;5.13;2.78;;;19.90;69.50;;;;;;5003129;28;20231;-72
2023/10/08 12:44:11;;;;;;;6.00;3.13;;;19.90;69.70;;;;;;4976905;28;20189;-72
2023/10/08 12:46:36;;;;;;;5.88;3.22;;;19.90;69.50;;;;;;4979100;28;20220;-72
2023/10/08 12:49:03;;;;;;;5.50;2.75;;;19.90;69.90;;;;;;4993727;28;20263;-70
2023/10/08 12:51:33;;;;;;;6.28;3.05;;;19.90;69.90;;;;;;4994484;28;20189;-71
2023/10/08 12:54:03;;;;;;;8.00;3.20;;;19.90;70.30;;;;;;4986412;28;20193;-71
2023/10/08 12:56:44;;;;;;;5.43;2.63;;;19.90;70.00;;;;;;5003590;28;20184;-72
2023/10/08 12:59:20;;;;;;;4.97;2.80;;;19.90;69.70;;;;;;4998227;28;20263;-72
2023/10/08 13:01:51;;;;;;;4.45;2.72;;;19.90;69.70;;;;;;4995464;28;20250;-73
2023/10/08 13:04:34;;;;;;;4.78;2.78;;;19.90;69.50;;;;;;4982783;28;20200;-72
2023/10/08 13:07:02;;;;;;;5.07;2.83;;;19.90;69.60;;;;;;4986715;28;20193;-72
2023/10/08 13:09:35;;;;;;;5.03;2.60;;;20.00;69.50;;;;;;4984956;28;20217;-72
2023/10/08 13:12:02;;;;;;;5.50;2.80;;;19.90;69.40;;;;;;4990416;28;20213;-71
2023/10/08 13:14:28;;;;;;;5.57;2.90;;;20.00;69.50;;;;;;4994013;28;20210;-72
2023/10/08 13:16:54;;;;;;;4.90;3.03;;;20.00;69.60;;;;;;4996164;28;20188;-72
2023/10/08 13:19:26;;;;;;;5.32;2.92;;;20.00;69.60;;;;;;4992323;28;20252;-72
2023/10/08 13:21:54;;;;;;;7.82;3.10;;;20.00;70.80;;;;;;4971910;28;20185;-72
2023/10/08 13:24:21;;;;;;;5.30;3.05;;;19.90;69.90;;;;;;4979054;28;20193;-72
2023/10/08 13:26:47;;;;;;;8.38;2.83;;;20.00;69.80;;;;;;4963114;28;20199;-73
2023/10/08 13:29:14;;;;;;;6.88;2.70;;;20.00;69.70;;;;;;4993730;28;20215;-72
2023/10/08 13:31:40;;;;;;;6.88;2.63;;;20.00;69.80;;;;;;4997275;28;20207;-72
2023/10/08 13:34:08;;;;;;;4.60;2.63;;;20.00;69.70;;;;;;4981147;28;20676;-72
2023/10/08 13:37:48;;;;;;;5.07;2.75;;;20.00;69.70;;;;;;4994697;28;20181;-72
2023/10/08 13:40:15;;;;;;;4.93;2.80;;;20.00;69.70;;;;;;4992153;28;20217;-71
2023/10/08 13:42:44;;;;;;;7.55;3.13;;;20.00;70.70;;;;;;4976478;28;20199;-71
2023/10/08 13:45:25;;;;;;;6.70;2.65;;;20.00;70.50;;;;;;4992868;28;20277;-73
2023/10/08 13:47:51;;;;;;;7.45;3.00;;;20.00;70.10;;;;;;4992951;28;20293;-71
2023/10/08 13:50:18;;;;;;;5.32;3.00;;;20.00;70.60;;;;;;4975627;28;20299;-71
2023/10/08 13:52:44;;;;;;;5.45;2.88;;;20.00;70.10;;;;;;4976090;28;20185;-72
2023/10/08 13:55:13;;;;;;;5.50;2.63;;;20.00;69.80;;;;;;4977116;28;20213;-71
2023/10/08 13:57:42;;;;;;;7.03;2.97;;;20.00;69.80;;;;;;4992067;28;20299;-72
2023/10/08 14:00:15;;;;;;;6.55;2.75;;;20.00;69.90;;;;;;4992390;28;20200;-72
2023/10/08 14:02:44;;;;;;;7.55;2.92;;;20.00;69.80;;;;;;4992281;28;20209;-72
2023/10/08 14:05:15;;;;;;;3.63;2.47;;;20.00;69.80;;;;;;4989133;28;20221;-72
2023/10/08 14:07:44;;;;;;;7.57;3.03;;;20.00;69.90;;;;;;4991797;28;20197;-72
2023/10/08 14:10:18;;;;;;;6.28;2.90;;;20.00;69.80;;;;;;4992067;28;20208;-72
2023/10/08 14:12:48;;;;;;;7.90;2.85;;;20.00;69.80;;;;;;4992340;28;20203;-72
2023/10/08 14:15:17;;;;;;;7.15;2.95;;;20.00;69.80;;;;;;4976255;28;20212;-71
2023/10/08 14:17:48;;;;;;;8.32;2.72;;;20.00;69.80;;;;;;4983798;28;20173;-72
2023/10/08 14:20:21;;;;;;;6.45;2.85;;;20.00;69.90;;;;;;4993245;28;20625;-72
2023/10/08 14:22:57;;;;;;;5.40;2.58;;;20.00;69.90;;;;;;4976310;28;20177;-71
2023/10/08 14:25:28;;;;;;;5.43;2.42;;;20.00;69.90;;;;;;4977372;28;20188;-72
2023/10/08 14:27:53;;;;;;;7.30;2.47;;;20.00;69.90;;;;;;4981501;28;20188;-71
2023/10/08 14:30:23;;;;;;;6.93;2.47;;;20.00;69.90;;;;;;4992700;28;20216;-72
2023/10/08 14:32:49;;;;;;;5.03;2.55;;;20.00;69.90;;;;;;4976735;28;20189;-72
2023/10/08 14:43:34;;;;;;;4.75;2.70;;;20.00;69.90;;;;;;4992650;28;20223;-72
2023/10/08 14:46:04;;;;;;;4.60;2.92;;;20.00;69.90;;;;;;4976614;28;20185;-72